Terminal Aerodrome Forecast
Issued by NWS

Home | Current Version | Previous Version | Graphics & Text | Print | Product List | Glossary On
Versions: 1 2 3 4 5 6 7 8 9 10 11 12 13 14 15
000
FTUS43 KTOP 221720
TAFMHK
TAF
KMHK 221720Z 2218/2318 27006KT P6SM SKC
     FM222300 03006KT P6SM VCTS SCT080CB
      TEMPO 2300/2303 3SM TSRA BKN050CB
     FM230700 06005KT P6SM BKN090=

USA.gov is the U.S. government's official web portal to all federal, state and local government web resources and services.